Time;durP1;ratioP1;P1;durP2;ratioP2;P2;SDS_P1;SDS_P2;PMS_P1;PMS_P2;Temp;Humidity;BMP_temperature;BMP_pressure;BME280_temperature;BME280_humidity;BME280_pressure;Samples;Min_cycle;Max_cycle;Signal;HPM_P1;HPM_P2
2022/01/11 00:00:24;;;;;;;15.90;10.57;;;9.80;99.90;;;;;;5015895;28;20084;-74
2022/01/11 00:02:52;;;;;;;16.05;9.82;;;9.80;99.90;;;;;;5016162;28;20048;-73
2022/01/11 00:07:51;;;;;;;16.48;10.07;;;9.70;99.90;;;;;;5015533;28;20236;-74
2022/01/11 00:10:26;;;;;;;18.33;11.95;;;9.70;99.90;;;;;;5015988;28;20026;-74
2022/01/11 00:12:52;;;;;;;17.50;9.32;;;9.70;99.90;;;;;;5015889;28;20029;-74
2022/01/11 00:15:18;;;;;;;16.80;10.25;;;9.70;99.90;;;;;;5015594;28;20018;-74
2022/01/11 00:17:43;;;;;;;16.67;10.45;;;9.70;99.90;;;;;;5016153;28;20026;-74
2022/01/11 00:20:12;;;;;;;19.70;12.50;;;9.70;99.90;;;;;;5015558;28;20028;-74
2022/01/11 00:22:56;;;;;;;16.45;10.45;;;9.80;99.90;;;;;;5015758;28;20099;-74
2022/01/11 00:25:22;;;;;;;18.08;11.40;;;9.80;99.90;;;;;;4997605;28;20509;-74
2022/01/11 00:27:47;;;;;;;17.63;10.70;;;9.80;99.90;;;;;;5015645;28;20026;-74
2022/01/11 00:30:13;;;;;;;17.45;10.00;;;9.90;99.90;;;;;;5015621;28;20018;-74
2022/01/11 00:32:45;;;;;;;16.33;9.23;;;9.80;99.90;;;;;;5015550;28;20041;-74
2022/01/11 00:35:15;;;;;;;16.40;9.00;;;9.90;99.90;;;;;;5015450;28;20021;-74
2022/01/11 00:37:40;;;;;;;17.88;9.35;;;9.80;99.90;;;;;;5015219;28;20502;-74
2022/01/11 00:40:08;;;;;;;16.40;9.00;;;9.80;99.90;;;;;;5015183;28;20101;-74
2022/01/11 00:42:34;;;;;;;15.45;9.00;;;9.80;99.90;;;;;;5014888;28;20018;-74
2022/01/11 00:45:04;;;;;;;16.40;9.93;;;9.80;99.90;;;;;;5015076;28;20088;-74
2022/01/11 00:47:29;;;;;;;16.63;10.32;;;9.80;99.90;;;;;;5015043;28;20033;-74
2022/01/11 00:49:55;;;;;;;15.60;9.20;;;9.70;99.90;;;;;;5014988;28;20571;-74
2022/01/11 00:52:21;;;;;;;17.13;10.90;;;9.70;99.90;;;;;;5014941;28;20034;-74
2022/01/11 00:54:47;;;;;;;14.40;9.23;;;9.70;99.90;;;;;;5014812;28;20030;-74
2022/01/11 00:57:13;;;;;;;16.65;9.70;;;9.70;99.90;;;;;;5014831;28;20447;-74
2022/01/11 00:59:38;;;;;;;19.80;11.65;;;9.70;99.90;;;;;;5014805;28;20025;-74
2022/01/11 01:02:04;;;;;;;17.38;10.65;;;9.70;99.90;;;;;;5014740;28;20068;-74
2022/01/11 01:04:30;;;;;;;17.20;10.30;;;9.70;99.90;;;;;;5014712;28;20030;-74
2022/01/11 01:06:56;;;;;;;18.08;9.98;;;9.70;99.90;;;;;;5014667;28;20482;-74
2022/01/11 01:09:24;;;;;;;17.98;10.45;;;9.70;99.90;;;;;;5013919;28;20032;-74
2022/01/11 01:11:49;;;;;;;20.02;11.23;;;9.70;99.90;;;;;;5014868;28;20022;-74
2022/01/11 01:14:16;;;;;;;19.30;11.88;;;9.70;99.90;;;;;;4996872;28;20033;-74
2022/01/11 01:16:42;;;;;;;19.08;11.23;;;9.70;99.90;;;;;;5014770;28;20058;-74
2022/01/11 01:19:08;;;;;;;18.80;11.57;;;9.60;99.90;;;;;;5014424;28;20393;-74
2022/01/11 01:21:37;;;;;;;19.15;11.93;;;9.70;99.90;;;;;;5014403;28;20097;-74
2022/01/11 01:24:09;;;;;;;18.45;11.77;;;9.70;99.90;;;;;;5014370;28;20105;-74
2022/01/11 01:26:34;;;;;;;18.02;11.57;;;9.60;99.90;;;;;;5014324;28;20030;-74
2022/01/11 01:29:01;;;;;;;20.63;11.38;;;9.60;99.90;;;;;;5014769;28;20089;-74
2022/01/11 01:31:28;;;;;;;18.75;10.77;;;9.60;99.90;;;;;;5014280;28;20026;-74
2022/01/11 01:33:56;;;;;;;19.17;11.15;;;9.60;99.90;;;;;;5014385;28;20053;-74
2022/01/11 01:36:22;;;;;;;20.80;12.93;;;9.70;99.90;;;;;;5014138;28;20036;-74
2022/01/11 01:38:48;;;;;;;17.75;11.55;;;9.60;99.90;;;;;;5014092;28;20022;-74
2022/01/11 01:41:17;;;;;;;20.65;12.05;;;9.60;99.90;;;;;;5014051;28;20371;-74
2022/01/11 01:43:45;;;;;;;17.77;11.18;;;9.60;99.90;;;;;;5002582;28;20037;-74
2022/01/11 01:46:12;;;;;;;19.27;11.43;;;9.70;99.90;;;;;;5012735;28;20433;-74
2022/01/11 01:48:38;;;;;;;19.23;10.93;;;9.70;99.90;;;;;;5014005;28;20018;-74
2022/01/11 01:51:06;;;;;;;19.20;11.25;;;9.70;99.90;;;;;;5014211;28;20474;-74
2022/01/11 01:53:33;;;;;;;20.85;11.90;;;9.70;99.90;;;;;;5013855;28;20057;-74
2022/01/11 01:55:59;;;;;;;19.45;11.45;;;9.70;99.90;;;;;;5013879;28;20022;-74
2022/01/11 01:58:25;;;;;;;21.70;11.85;;;9.70;99.90;;;;;;5013875;28;20021;-74
2022/01/11 02:00:54;;;;;;;20.13;11.45;;;9.70;99.90;;;;;;5013432;28;20026;-73
2022/01/11 02:03:29;;;;;;;20.02;11.68;;;9.70;99.90;;;;;;5014011;28;20084;-74
2022/01/11 02:05:56;;;;;;;17.92;11.85;;;9.70;99.90;;;;;;5014312;28;20025;-74
2022/01/11 02:08:22;;;;;;;21.20;12.27;;;9.70;99.90;;;;;;5013691;28;20049;-74
2022/01/11 02:10:48;;;;;;;19.50;11.75;;;9.70;99.90;;;;;;5013938;28;20056;-74
2022/01/11 02:13:16;;;;;;;21.38;12.35;;;9.70;99.90;;;;;;5013583;28;20076;-74
2022/01/11 02:15:41;;;;;;;21.42;12.23;;;9.70;99.90;;;;;;5013648;28;20018;-74
2022/01/11 02:18:13;;;;;;;19.35;11.10;;;9.70;99.90;;;;;;5012285;28;20515;-74
2022/01/11 02:20:40;;;;;;;19.33;11.45;;;9.70;99.90;;;;;;5014010;28;20425;-74
2022/01/11 02:23:07;;;;;;;21.30;12.90;;;9.70;99.90;;;;;;5012252;28;20049;-74
2022/01/11 02:25:34;;;;;;;17.77;11.48;;;9.70;99.90;;;;;;5013512;28;20097;-74
2022/01/11 02:27:59;;;;;;;17.73;11.50;;;9.70;99.90;;;;;;5013762;28;20429;-74
2022/01/11 02:30:25;;;;;;;19.33;12.20;;;9.80;99.90;;;;;;5013730;28;20026;-74
2022/01/11 02:32:52;;;;;;;19.45;12.88;;;9.80;99.90;;;;;;5013414;28;20064;-74
2022/01/11 02:35:18;;;;;;;18.38;11.02;;;9.80;99.90;;;;;;5013469;28;20022;-74
2022/01/11 02:37:44;;;;;;;19.80;12.02;;;9.80;99.90;;;;;;5013701;28;20018;-74
2022/01/11 02:40:12;;;;;;;19.58;11.52;;;9.80;99.90;;;;;;5013381;28;20108;-74
2022/01/11 02:42:37;;;;;;;17.20;11.27;;;9.80;99.90;;;;;;5013045;28;20022;-74
2022/01/11 02:45:03;;;;;;;17.88;10.93;;;9.80;99.90;;;;;;5013634;28;20029;-73
2022/01/11 02:47:29;;;;;;;20.13;12.15;;;9.80;99.90;;;;;;5013861;28;20030;-74
2022/01/11 02:49:54;;;;;;;16.00;10.77;;;9.80;99.90;;;;;;5013533;28;20496;-74
2022/01/11 02:52:20;;;;;;;18.10;10.77;;;9.80;99.90;;;;;;4995666;28;20034;-74
2022/01/11 02:54:46;;;;;;;21.38;11.93;;;9.80;99.90;;;;;;5013168;28;20108;-74
2022/01/11 02:57:12;;;;;;;18.92;11.00;;;9.80;99.90;;;;;;5013232;28;20022;-74
2022/01/11 02:59:38;;;;;;;19.35;11.80;;;9.80;99.90;;;;;;5013525;28;20061;-74
2022/01/11 03:02:04;;;;;;;19.02;11.25;;;9.80;99.90;;;;;;5013413;28;20018;-74
2022/01/11 03:04:33;;;;;;;18.35;11.85;;;9.90;99.90;;;;;;5013113;28;20041;-74
2022/01/11 03:06:59;;;;;;;18.23;10.63;;;9.90;99.90;;;;;;5013375;28;20026;-74
2022/01/11 03:09:27;;;;;;;18.65;11.55;;;10.00;99.90;;;;;;5013071;28;20030;-74
2022/01/11 03:11:53;;;;;;;18.38;10.40;;;10.00;99.90;;;;;;5013083;28;20018;-74
2022/01/11 03:14:18;;;;;;;19.48;11.23;;;9.90;99.90;;;;;;5013230;28;20034;-74
2022/01/11 03:16:44;;;;;;;15.65;9.90;;;10.00;99.90;;;;;;5013274;28;20022;-74
2022/01/11 03:19:09;;;;;;;19.48;11.32;;;10.00;99.90;;;;;;5013028;28;20041;-74
2022/01/11 03:21:35;;;;;;;16.42;9.88;;;10.10;99.90;;;;;;5013291;28;20022;-74
2022/01/11 03:24:01;;;;;;;15.98;10.00;;;10.00;99.90;;;;;;4995430;28;20501;-74
2022/01/11 03:26:26;;;;;;;13.38;8.93;;;10.10;99.90;;;;;;5013235;28;20489;-74
2022/01/11 03:28:52;;;;;;;14.38;9.43;;;10.10;99.90;;;;;;4995369;28;20486;-74
2022/01/11 03:31:19;;;;;;;14.82;8.85;;;10.10;99.90;;;;;;5013958;28;20488;-74
2022/01/11 03:33:45;;;;;;;14.32;8.63;;;10.20;99.90;;;;;;4998728;28;20022;-74
2022/01/11 03:36:11;;;;;;;18.38;9.60;;;10.20;99.90;;;;;;5016408;28;20022;-74
2022/01/11 03:38:36;;;;;;;16.17;9.13;;;10.20;99.90;;;;;;5016359;28;20505;-74
2022/01/11 03:41:02;;;;;;;15.45;9.07;;;10.30;99.90;;;;;;5016242;28;20018;-74
2022/01/11 03:43:28;;;;;;;15.32;9.32;;;10.30;99.90;;;;;;5016087;28;20048;-74
2022/01/11 03:45:54;;;;;;;14.85;9.35;;;10.20;99.90;;;;;;5016241;28;20029;-74
2022/01/11 03:48:20;;;;;;;15.75;9.35;;;10.20;99.90;;;;;;5016692;28;20037;-74
2022/01/11 03:50:49;;;;;;;13.57;8.95;;;10.10;99.90;;;;;;5016083;28;20017;-74
2022/01/11 03:53:16;;;;;;;14.52;9.18;;;10.20;99.90;;;;;;5016001;28;20070;-74
2022/01/11 03:58:13;;;;;;;13.60;8.57;;;10.20;99.90;;;;;;5016282;28;20033;-74
2022/01/11 04:00:39;;;;;;;14.75;8.88;;;10.20;99.90;;;;;;5015919;28;20060;-74
2022/01/11 04:03:05;;;;;;;14.15;8.15;;;10.10;99.90;;;;;;5016153;28;20029;-74
2022/01/11 04:05:31;;;;;;;15.63;8.95;;;10.10;99.90;;;;;;5015876;28;20470;-74
2022/01/11 04:07:57;;;;;;;14.05;8.75;;;10.10;99.90;;;;;;4998185;28;20478;-74
2022/01/11 04:10:23;;;;;;;14.75;8.43;;;10.20;99.90;;;;;;5015732;28;20052;-74
2022/01/11 04:12:50;;;;;;;13.23;8.35;;;10.20;99.90;;;;;;5015950;28;20382;-74
2022/01/11 04:15:16;;;;;;;13.40;8.30;;;10.20;99.90;;;;;;5016156;28;20072;-74
2022/01/11 04:17:42;;;;;;;17.15;9.45;;;10.10;99.90;;;;;;5015608;28;20067;-74
2022/01/11 04:20:08;;;;;;;16.55;10.10;;;10.10;99.90;;;;;;5015832;28;20101;-74
2022/01/11 04:22:34;;;;;;;14.57;8.15;;;10.00;99.90;;;;;;5015418;28;20389;-74
2022/01/11 04:25:00;;;;;;;15.73;9.80;;;10.10;99.90;;;;;;5015755;28;20032;-74
2022/01/11 04:27:25;;;;;;;17.45;9.82;;;10.20;99.90;;;;;;5015434;28;20026;-74
2022/01/11 04:29:51;;;;;;;16.17;9.90;;;10.20;99.90;;;;;;5015380;28;20034;-74
2022/01/11 04:32:17;;;;;;;15.05;9.88;;;10.20;99.90;;;;;;5015662;28;20049;-74
2022/01/11 04:34:43;;;;;;;16.58;10.85;;;10.20;99.90;;;;;;5015775;28;20026;-74
2022/01/11 04:37:08;;;;;;;17.63;10.57;;;10.10;99.90;;;;;;5015296;28;20075;-74
2022/01/11 04:39:34;;;;;;;18.17;10.95;;;10.10;99.90;;;;;;5015223;28;20474;-74
2022/01/11 04:41:59;;;;;;;18.73;11.60;;;10.00;99.90;;;;;;5014974;28;20474;-74
2022/01/11 04:44:25;;;;;;;19.60;11.40;;;9.90;99.90;;;;;;5014090;28;20475;-74
2022/01/11 04:46:51;;;;;;;19.35;12.05;;;9.70;99.90;;;;;;5015380;28;20052;-74
2022/01/11 04:49:16;;;;;;;18.10;11.48;;;9.60;99.90;;;;;;5015331;28;20123;-74
2022/01/11 04:51:42;;;;;;;19.88;11.65;;;9.60;99.90;;;;;;5015008;28;20029;-74
2022/01/11 04:54:08;;;;;;;21.13;12.13;;;9.70;99.90;;;;;;5014851;28;20080;-74
2022/01/11 04:56:35;;;;;;;17.95;11.57;;;9.80;99.90;;;;;;5014916;28;20030;-74
2022/01/11 04:59:01;;;;;;;15.73;10.50;;;9.80;99.90;;;;;;5014841;28;20490;-74
2022/01/11 05:01:29;;;;;;;17.88;11.27;;;9.80;99.90;;;;;;5014583;28;20026;-74
2022/01/11 05:03:55;;;;;;;21.05;13.27;;;9.90;99.90;;;;;;5014740;28;20486;-74
2022/01/11 05:06:20;;;;;;;17.40;11.23;;;9.90;99.90;;;;;;5014692;28;20076;-73
2022/01/11 05:08:46;;;;;;;20.48;13.10;;;9.90;99.90;;;;;;5014903;28;20030;-74
2022/01/11 05:11:12;;;;;;;20.75;12.60;;;9.90;99.90;;;;;;4997018;28;20030;-74
2022/01/11 05:13:37;;;;;;;20.10;13.27;;;9.90;99.90;;;;;;5014521;28;20026;-74
2022/01/11 05:16:03;;;;;;;19.48;13.57;;;9.90;99.90;;;;;;5014519;28;20545;-74
2022/01/11 05:18:30;;;;;;;21.70;13.43;;;9.90;99.90;;;;;;5014503;28;20026;-74
2022/01/11 05:20:56;;;;;;;21.20;13.25;;;9.80;99.90;;;;;;5014740;28;20030;-74
2022/01/11 05:23:21;;;;;;;21.33;13.90;;;9.80;99.90;;;;;;5014622;28;20029;-74
2022/01/11 05:25:47;;;;;;;22.40;14.35;;;9.80;99.90;;;;;;5014625;28;20061;-74
2022/01/11 05:28:13;;;;;;;22.45;13.40;;;9.70;99.90;;;;;;5014320;28;20487;-74
2022/01/11 05:30:39;;;;;;;21.92;14.15;;;9.60;99.90;;;;;;5014343;28;20033;-74
2022/01/11 05:33:05;;;;;;;22.02;14.57;;;9.60;99.90;;;;;;5014207;28;20025;-74
2022/01/11 05:35:31;;;;;;;20.00;14.20;;;9.60;99.90;;;;;;5014461;28;20065;-74
2022/01/11 05:37:57;;;;;;;18.92;13.23;;;9.60;99.90;;;;;;5014394;28;20022;-74
2022/01/11 05:40:23;;;;;;;21.60;13.85;;;9.60;99.90;;;;;;5014057;28;20056;-74
2022/01/11 05:42:50;;;;;;;19.15;12.90;;;9.60;99.90;;;;;;5014342;28;20045;-74
2022/01/11 05:45:16;;;;;;;22.70;14.35;;;9.60;99.90;;;;;;5014350;28;20032;-74
2022/01/11 05:47:42;;;;;;;21.17;13.43;;;9.60;99.90;;;;;;5013982;28;20033;-74
2022/01/11 05:50:10;;;;;;;18.10;12.50;;;9.60;99.90;;;;;;5014273;28;20100;-74
2022/01/11 05:52:38;;;;;;;20.23;13.52;;;9.70;99.90;;;;;;5014196;28;20029;-74
2022/01/11 05:55:05;;;;;;;19.95;13.23;;;9.70;99.90;;;;;;5013568;28;20022;-74
2022/01/11 05:57:31;;;;;;;20.58;14.50;;;9.70;99.90;;;;;;5014070;28;20470;-74
2022/01/11 05:59:56;;;;;;;22.25;14.57;;;9.70;99.90;;;;;;5014089;28;20076;-74
2022/01/11 06:02:22;;;;;;;17.98;12.38;;;9.70;99.90;;;;;;5014054;28;20405;-74
2022/01/11 06:04:48;;;;;;;20.85;14.55;;;9.70;99.90;;;;;;5014002;28;20054;-74
2022/01/11 06:07:13;;;;;;;21.10;14.10;;;9.70;99.90;;;;;;5013959;28;20050;-74
2022/01/11 06:09:39;;;;;;;21.63;13.98;;;9.70;99.90;;;;;;5013972;28;20134;-74
2022/01/11 06:12:06;;;;;;;22.23;14.45;;;9.70;99.90;;;;;;5013940;28;20041;-74
2022/01/11 06:14:31;;;;;;;22.70;14.60;;;9.70;99.90;;;;;;5013554;28;20144;-74
2022/01/11 06:16:57;;;;;;;20.55;14.45;;;9.70;99.90;;;;;;5013893;28;20053;-74
2022/01/11 06:19:23;;;;;;;23.00;14.57;;;9.70;99.90;;;;;;5013876;28;20018;-74
2022/01/11 06:21:48;;;;;;;24.23;15.52;;;9.70;99.90;;;;;;5013594;28;20034;-74
2022/01/11 06:24:14;;;;;;;21.50;13.27;;;9.70;99.90;;;;;;5013567;28;20033;-74
2022/01/11 06:26:41;;;;;;;25.30;16.13;;;9.80;99.90;;;;;;5013486;28;20064;-74
2022/01/11 06:29:07;;;;;;;22.98;14.82;;;9.70;99.90;;;;;;5013505;28;20576;-74
2022/01/11 06:31:35;;;;;;;22.13;14.90;;;9.80;99.90;;;;;;5013179;28;20125;-74
2022/01/11 06:34:01;;;;;;;25.67;15.75;;;9.70;99.90;;;;;;5013553;28;20076;-74
2022/01/11 06:36:28;;;;;;;24.85;15.98;;;9.70;99.90;;;;;;4995818;28;20029;-74
2022/01/11 06:38:54;;;;;;;22.75;15.20;;;9.60;99.90;;;;;;5013372;28;20021;-74
2022/01/11 06:41:19;;;;;;;24.25;16.33;;;9.60;99.90;;;;;;5013472;28;20025;-74
2022/01/11 06:43:45;;;;;;;24.70;15.90;;;9.60;99.90;;;;;;5013107;28;20046;-74
2022/01/11 06:46:11;;;;;;;25.23;17.00;;;9.70;99.90;;;;;;5013848;28;20025;-74
2022/01/11 06:48:36;;;;;;;25.73;15.60;;;9.60;99.90;;;;;;5013626;28;20057;-74
2022/01/11 06:51:02;;;;;;;29.73;19.65;;;9.60;99.90;;;;;;5013285;28;20026;-74
2022/01/11 06:53:32;;;;;;;27.60;16.77;;;9.70;99.90;;;;;;5013188;28;20026;-74
2022/01/11 06:55:58;;;;;;;25.45;16.17;;;9.70;99.90;;;;;;5013297;28;20022;-74
2022/01/11 06:58:23;;;;;;;28.30;16.85;;;9.80;99.90;;;;;;5013174;28;20026;-74
2022/01/11 07:00:49;;;;;;;32.88;22.60;;;9.80;99.90;;;;;;5013451;28;20034;-74
2022/01/11 07:03:15;;;;;;;27.02;17.60;;;9.70;99.90;;;;;;5013144;28;20022;-74
2022/01/11 07:05:42;;;;;;;26.50;15.85;;;9.80;99.90;;;;;;5013169;28;20081;-74
2022/01/11 07:08:08;;;;;;;26.42;17.17;;;9.80;99.90;;;;;;5016803;28;20456;-74
2022/01/11 07:10:33;;;;;;;28.83;17.58;;;9.80;99.90;;;;;;5017193;28;20041;-74
2022/01/11 07:12:59;;;;;;;24.15;15.90;;;9.70;99.90;;;;;;5016917;28;20093;-74
2022/01/11 07:15:25;;;;;;;25.08;15.40;;;9.70;99.90;;;;;;5016980;28;20455;-73
2022/01/11 07:17:50;;;;;;;29.90;16.80;;;9.70;99.90;;;;;;5017007;28;20037;-74
2022/01/11 07:20:16;;;;;;;27.73;17.65;;;9.70;99.90;;;;;;5017267;28;20033;-74
2022/01/11 07:22:42;;;;;;;33.17;20.95;;;9.70;99.90;;;;;;5016651;28;20022;-74
2022/01/11 07:25:08;;;;;;;29.52;17.42;;;9.70;99.90;;;;;;5016561;28;20037;-74
2022/01/11 07:27:34;;;;;;;25.98;16.63;;;9.70;99.90;;;;;;5016846;28;20021;-74
2022/01/11 07:30:04;;;;;;;27.58;16.92;;;9.70;99.90;;;;;;5016565;28;20037;-74
2022/01/11 07:32:31;;;;;;;30.15;18.27;;;9.70;99.90;;;;;;5016650;28;20425;-74
2022/01/11 07:34:58;;;;;;;31.52;18.35;;;9.70;99.90;;;;;;5016332;28;20034;-74
2022/01/11 07:37:25;;;;;;;34.67;20.85;;;9.70;99.90;;;;;;5016417;28;20026;-74
2022/01/11 07:39:50;;;;;;;31.02;19.10;;;9.70;99.90;;;;;;5016305;28;20030;-74
2022/01/11 07:42:16;;;;;;;26.23;16.50;;;9.60;99.90;;;;;;5016241;28;20508;-74
2022/01/11 07:44:43;;;;;;;26.33;17.42;;;9.50;99.90;;;;;;5015872;28;20038;-74
2022/01/11 07:47:08;;;;;;;24.90;16.58;;;9.60;99.90;;;;;;5016215;28;20490;-74
2022/01/11 07:49:34;;;;;;;29.73;17.55;;;9.60;99.90;;;;;;5016165;28;20037;-74
2022/01/11 07:52:01;;;;;;;33.50;20.80;;;9.60;99.90;;;;;;5016121;28;20018;-74
2022/01/11 07:54:26;;;;;;;28.80;18.55;;;9.60;99.90;;;;;;5015988;28;20034;-74
2022/01/11 07:56:52;;;;;;;27.83;18.40;;;9.50;99.90;;;;;;5016041;28;20089;-74
2022/01/11 07:59:18;;;;;;;31.92;19.50;;;9.50;99.90;;;;;;5016045;28;20117;-74
2022/01/11 08:01:44;;;;;;;37.65;22.58;;;9.50;99.90;;;;;;5015961;28;20029;-74
2022/01/11 08:04:09;;;;;;;35.17;22.58;;;9.50;99.90;;;;;;5015912;28;20055;-74
2022/01/11 08:06:35;;;;;;;40.40;24.25;;;9.50;99.90;;;;;;5016136;28;20030;-74
2022/01/11 08:09:01;;;;;;;37.10;24.60;;;9.60;99.90;;;;;;5016084;28;20033;-74
2022/01/11 08:11:27;;;;;;;42.97;28.70;;;9.60;99.90;;;;;;5016034;28;20032;-74
2022/01/11 08:13:53;;;;;;;36.92;22.58;;;9.70;99.90;;;;;;5015629;28;20033;-74
2022/01/11 08:16:19;;;;;;;44.75;30.52;;;9.70;99.90;;;;;;5015928;28;20029;-74
2022/01/11 08:18:44;;;;;;;36.42;23.35;;;9.80;99.90;;;;;;5015713;28;20385;-74
2022/01/11 08:21:10;;;;;;;36.72;20.58;;;9.80;99.90;;;;;;5015581;28;20022;-74
2022/01/11 08:23:36;;;;;;;40.65;30.55;;;9.70;99.90;;;;;;5015532;28;20029;-74
2022/01/11 08:26:02;;;;;;;30.23;18.88;;;9.70;99.90;;;;;;5015779;28;20084;-74
2022/01/11 08:28:27;;;;;;;33.80;20.30;;;9.80;99.90;;;;;;5015405;28;20029;-74
2022/01/11 08:30:53;;;;;;;30.58;19.08;;;9.70;99.90;;;;;;5015382;28;20513;-74
2022/01/11 08:33:19;;;;;;;30.88;19.35;;;9.60;99.90;;;;;;5015113;28;20029;-74
2022/01/11 08:35:45;;;;;;;32.50;19.63;;;9.60;99.90;;;;;;5015310;28;20442;-74
2022/01/11 08:38:11;;;;;;;31.40;17.92;;;9.60;99.90;;;;;;5015276;28;20068;-74
2022/01/11 08:40:37;;;;;;;30.95;19.55;;;9.60;99.90;;;;;;5015068;28;20485;-74
2022/01/11 08:43:04;;;;;;;33.38;22.08;;;9.70;99.90;;;;;;5015200;28;20042;-74
2022/01/11 08:45:31;;;;;;;38.03;23.35;;;9.70;99.90;;;;;;5015405;28;20022;-74
2022/01/11 08:47:57;;;;;;;36.72;24.48;;;9.80;99.90;;;;;;5015353;28;20053;-74
2022/01/11 08:50:23;;;;;;;38.58;26.85;;;9.80;99.90;;;;;;5015049;28;20026;-74
2022/01/11 08:52:50;;;;;;;34.83;21.48;;;9.90;99.90;;;;;;5014979;28;20399;-74
2022/01/11 08:55:15;;;;;;;31.83;20.42;;;9.90;99.90;;;;;;5014844;28;20493;-74
2022/01/11 08:57:41;;;;;;;35.38;22.83;;;9.90;99.90;;;;;;5015206;28;20026;-74
2022/01/11 09:00:16;;;;;;;30.92;19.83;;;9.90;99.90;;;;;;5014816;28;20513;-74
2022/01/11 09:02:43;;;;;;;35.00;23.98;;;10.00;99.90;;;;;;5015432;28;20057;-74
2022/01/11 09:05:09;;;;;;;28.48;18.90;;;10.00;99.90;;;;;;5015299;28;20100;-74
2022/01/11 09:07:34;;;;;;;33.33;23.17;;;10.00;99.90;;;;;;5014716;28;20482;-74
2022/01/11 09:10:00;;;;;;;28.17;18.00;;;10.00;99.90;;;;;;5014671;28;20029;-74
2022/01/11 09:12:26;;;;;;;35.95;23.67;;;10.00;99.90;;;;;;5014660;28;20056;-74
2022/01/11 09:14:52;;;;;;;29.40;19.05;;;10.10;99.90;;;;;;5014548;28;20030;-74
2022/01/11 09:17:18;;;;;;;30.48;21.75;;;10.10;99.90;;;;;;5014552;28;20044;-74
2022/01/11 09:19:44;;;;;;;26.63;16.55;;;10.10;99.90;;;;;;5014781;28;20096;-74
2022/01/11 09:22:09;;;;;;;26.40;16.70;;;10.10;99.90;;;;;;5014485;28;20022;-74
2022/01/11 09:24:36;;;;;;;27.70;18.58;;;10.20;99.90;;;;;;4996862;28;20038;-74
2022/01/11 09:27:04;;;;;;;26.65;18.50;;;10.10;99.90;;;;;;5014660;28;20080;-74
2022/01/11 09:29:36;;;;;;;25.92;16.05;;;10.10;99.90;;;;;;5014094;28;20041;-74
2022/01/11 09:32:04;;;;;;;23.92;14.13;;;10.10;99.90;;;;;;5014644;28;20026;-74
2022/01/11 09:34:30;;;;;;;22.92;14.30;;;10.10;99.90;;;;;;5014207;28;20092;-74
2022/01/11 09:36:56;;;;;;;26.48;15.93;;;10.10;99.90;;;;;;5014176;28;20474;-74
2022/01/11 09:39:23;;;;;;;35.70;21.52;;;10.00;99.90;;;;;;5014126;28;20071;-74
2022/01/11 09:41:49;;;;;;;41.38;25.63;;;10.00;99.90;;;;;;5014143;28;20449;-74
2022/01/11 09:44:15;;;;;;;55.45;35.40;;;10.00;99.90;;;;;;5013810;28;20045;-74
2022/01/11 09:46:41;;;;;;;60.55;35.45;;;10.10;99.90;;;;;;5014007;28;20034;-74
2022/01/11 09:49:07;;;;;;;44.38;27.10;;;10.10;99.90;;;;;;5013971;28;20030;-74
2022/01/11 09:51:35;;;;;;;60.78;38.50;;;10.10;99.90;;;;;;5014184;28;20144;-74
2022/01/11 09:54:02;;;;;;;48.53;30.27;;;10.20;99.90;;;;;;5014109;28;20103;-74
2022/01/11 09:56:27;;;;;;;30.42;18.63;;;10.10;99.90;;;;;;5014199;28;20022;-74
2022/01/11 09:58:53;;;;;;;29.77;18.63;;;10.10;99.90;;;;;;5013357;28;20021;-74
2022/01/11 10:01:19;;;;;;;39.38;24.05;;;10.10;99.90;;;;;;5012816;28;20018;-74
2022/01/11 10:03:54;;;;;;;34.33;20.98;;;10.10;99.90;;;;;;5012655;28;20049;-74
2022/01/11 10:06:21;;;;;;;33.97;21.40;;;10.10;99.90;;;;;;5013655;28;20052;-74
2022/01/11 10:08:47;;;;;;;23.95;13.93;;;10.10;99.90;;;;;;5013740;28;20097;-74
2022/01/11 10:11:13;;;;;;;27.52;17.05;;;10.10;99.90;;;;;;5013555;28;20113;-72
2022/01/11 10:13:41;;;;;;;30.15;18.08;;;10.10;99.90;;;;;;5013840;28;20052;-72
2022/01/11 10:16:24;;;;;;;26.92;15.25;;;10.20;99.90;;;;;;5014366;28;20365;-72
2022/01/11 10:18:51;;;;;;;25.73;14.40;;;10.10;99.90;;;;;;5013940;28;20050;-73
2022/01/11 10:21:43;;;;;;;32.05;16.63;;;10.10;99.90;;;;;;5013880;28;20378;-74
2022/01/11 10:24:32;;;;;;;27.48;18.88;;;10.20;99.90;;;;;;5014126;28;20018;-73
2022/01/11 10:27:05;;;;;;;25.10;16.35;;;10.20;99.90;;;;;;5013808;28;20385;-73
2022/01/11 10:29:40;;;;;;;26.92;15.60;;;10.20;99.90;;;;;;5013661;28;20080;-73
2022/01/11 10:32:11;;;;;;;26.65;14.70;;;10.10;99.90;;;;;;5013460;28;20037;-73
2022/01/11 10:34:38;;;;;;;29.95;17.38;;;10.20;99.90;;;;;;5013938;28;20037;-75
2022/01/11 10:37:05;;;;;;;26.08;18.25;;;10.10;99.90;;;;;;5013679;28;20022;-74
2022/01/11 10:39:38;;;;;;;27.33;15.68;;;10.20;99.90;;;;;;5013973;28;20030;-72
2022/01/11 10:42:05;;;;;;;27.10;16.02;;;10.20;99.90;;;;;;5015533;28;20069;-74
2022/01/11 10:44:51;;;;;;;30.00;17.77;;;10.20;99.90;;;;;;5017015;28;20048;-74
2022/01/11 10:47:25;;;;;;;30.35;16.92;;;10.10;99.90;;;;;;5017737;28;20026;-73
2022/01/11 10:49:59;;;;;;;28.15;17.88;;;10.00;99.90;;;;;;5017372;28;20025;-71
2022/01/11 10:52:28;;;;;;;30.02;17.65;;;10.00;99.90;;;;;;4999423;28;20029;-75
2022/01/11 10:54:55;;;;;;;31.00;18.55;;;10.10;99.90;;;;;;5017116;28;20522;-76
2022/01/11 10:57:24;;;;;;;29.88;19.33;;;10.00;99.90;;;;;;5017117;28;20030;-75
2022/01/11 11:00:11;;;;;;;26.63;18.38;;;10.00;99.90;;;;;;5017341;28;20022;-77
2022/01/11 11:02:37;;;;;;;27.75;17.42;;;10.10;99.90;;;;;;5017325;28;20033;-73
2022/01/11 11:05:16;;;;;;;32.88;18.02;;;10.10;99.90;;;;;;5017296;28;20028;-74
2022/01/11 11:07:43;;;;;;;28.55;18.63;;;10.10;99.90;;;;;;5017523;28;20034;-71
2022/01/11 11:10:10;;;;;;;32.58;19.45;;;10.10;99.90;;;;;;5016915;28;20046;-78
2022/01/11 11:12:35;;;;;;;29.58;19.75;;;10.00;99.90;;;;;;5016854;28;20026;-77
2022/01/11 11:15:03;;;;;;;27.63;17.33;;;9.80;99.90;;;;;;5016824;28;20080;-71
2022/01/11 11:17:34;;;;;;;23.60;16.83;;;9.80;99.90;;;;;;5017181;28;20025;-74
2022/01/11 11:20:10;;;;;;;25.98;17.25;;;9.90;99.90;;;;;;5017067;28;20029;-78
2022/01/11 11:22:36;;;;;;;23.30;15.85;;;10.00;99.90;;;;;;5016769;28;20045;-73
2022/01/11 11:25:04;;;;;;;23.88;16.45;;;10.10;99.90;;;;;;5016599;28;20491;-74
2022/01/11 11:27:31;;;;;;;26.38;17.08;;;10.20;99.90;;;;;;5016874;28;20025;-79
2022/01/11 11:29:57;;;;;;;26.27;16.35;;;10.30;99.90;;;;;;4999030;28;20494;-73
2022/01/11 11:32:23;;;;;;;24.50;16.95;;;10.20;99.90;;;;;;5016921;28;20037;-78
2022/01/11 11:34:50;;;;;;;24.40;18.60;;;10.30;99.90;;;;;;5016687;28;20029;-73
2022/01/11 11:37:35;;;;;;;24.23;14.93;;;10.40;99.90;;;;;;5016350;28;20129;-73
2022/01/11 11:40:07;;;;;;;23.67;16.65;;;10.40;99.90;;;;;;5015466;28;20486;-72
2022/01/11 11:42:34;;;;;;;21.35;15.00;;;10.50;99.90;;;;;;5014089;28;20034;-72
2022/01/11 11:45:00;;;;;;;22.33;17.00;;;10.50;99.90;;;;;;5014526;28;20517;-73
2022/01/11 11:47:34;;;;;;;22.40;15.25;;;10.50;99.90;;;;;;5014672;28;20084;-73
2022/01/11 11:50:03;;;;;;;19.95;14.30;;;10.50;99.90;;;;;;5015649;28;20042;-73
2022/01/11 11:52:39;;;;;;;23.95;14.95;;;10.50;99.90;;;;;;5015105;28;20500;-72
2022/01/11 11:55:08;;;;;;;20.98;14.80;;;10.50;99.90;;;;;;5015779;28;20068;-73
2022/01/11 11:57:36;;;;;;;19.15;13.13;;;10.50;99.90;;;;;;5016075;28;20026;-72
2022/01/11 12:00:18;;;;;;;20.25;14.20;;;10.60;99.90;;;;;;5015937;28;20025;-73
2022/01/11 12:03:10;;;;;;;21.15;13.10;;;10.60;99.90;;;;;;5016292;28;20026;-72
2022/01/11 12:05:47;;;;;;;21.80;14.60;;;10.70;99.90;;;;;;4985631;28;20548;-72
2022/01/11 12:08:42;;;;;;;23.08;14.90;;;10.60;99.90;;;;;;5016214;28;20053;-74
2022/01/11 12:11:15;;;;;;;21.30;13.95;;;10.40;99.90;;;;;;5016116;28;20025;-73
2022/01/11 12:13:59;;;;;;;18.83;12.60;;;10.30;99.90;;;;;;4998094;28;20080;-72
2022/01/11 12:16:29;;;;;;;19.63;12.88;;;10.20;99.90;;;;;;5016014;28;20105;-72
2022/01/11 12:18:59;;;;;;;17.58;12.05;;;10.20;99.90;;;;;;5015658;28;20030;-73
2022/01/11 12:21:27;;;;;;;21.75;13.63;;;10.20;99.90;;;;;;5015736;28;20088;-73
2022/01/11 12:23:56;;;;;;;18.83;12.23;;;10.10;99.90;;;;;;5015532;28;20528;-73
2022/01/11 12:26:27;;;;;;;19.55;12.13;;;10.20;99.90;;;;;;5015497;28;20482;-72
2022/01/11 12:29:05;;;;;;;19.88;12.68;;;10.10;99.90;;;;;;4997866;28;20041;-74
2022/01/11 12:31:45;;;;;;;19.38;11.65;;;10.00;99.90;;;;;;5015672;28;20041;-73
2022/01/11 12:34:12;;;;;;;21.42;14.38;;;10.10;99.90;;;;;;5015578;28;20030;-73
2022/01/11 12:36:57;;;;;;;20.08;14.05;;;10.10;99.90;;;;;;5015313;28;20382;-73
2022/01/11 12:39:24;;;;;;;16.20;11.43;;;10.10;99.90;;;;;;5015300;28;20470;-73